createdAt,value
2023-05-10T00:01:33.479Z,12.84
2023-05-10T00:04:00.161Z,12.75
2023-05-10T00:06:27.051Z,12.76
2023-05-10T00:08:53.690Z,12.78
2023-05-10T00:11:22.985Z,12.79
2023-05-10T00:13:49.949Z,12.70
2023-05-10T00:16:16.675Z,12.63
2023-05-10T00:18:43.383Z,12.60
2023-05-10T00:21:10.088Z,12.59
2023-05-10T00:23:36.721Z,12.60
2023-05-10T00:26:03.374Z,12.54
2023-05-10T00:28:30.387Z,12.46
2023-05-10T00:30:57.265Z,12.51
2023-05-10T00:33:24.030Z,12.53
2023-05-10T00:35:50.793Z,12.46
2023-05-10T00:38:17.445Z,12.46
2023-05-10T00:40:44.101Z,12.47
2023-05-10T00:43:18.899Z,12.45
2023-05-10T00:45:48.174Z,12.43
2023-05-10T00:48:14.999Z,12.39
2023-05-10T00:50:42.100Z,12.43
2023-05-10T00:53:09.921Z,12.43
2023-05-10T00:55:36.828Z,12.41
2023-05-10T00:58:03.713Z,12.34
2023-05-10T01:00:30.803Z,12.42
2023-05-10T01:02:57.912Z,12.43
2023-05-10T01:05:24.681Z,12.40
2023-05-10T01:07:52.014Z,12.34
2023-05-10T01:10:19.498Z,12.41
2023-05-10T01:12:48.482Z,12.47
2023-05-10T01:15:16.973Z,12.46
2023-05-10T01:17:48.293Z,12.48
2023-05-10T01:20:16.510Z,12.46
2023-05-10T01:22:50.962Z,12.48
2023-05-10T01:25:38.414Z,12.49
2023-05-10T01:28:26.772Z,12.51
2023-05-10T01:31:15.316Z,12.49
2023-05-10T01:33:55.951Z,12.42
2023-05-10T01:36:28.637Z,12.43
2023-05-10T01:39:15.368Z,12.34
2023-05-10T01:42:04.575Z,12.30
2023-05-10T01:44:43.936Z,12.40
2023-05-10T01:47:34.539Z,12.31
2023-05-10T01:50:05.199Z,12.29
2023-05-10T01:52:36.714Z,12.31
2023-05-10T01:55:07.308Z,12.21
2023-05-10T01:57:37.966Z,12.10
2023-05-10T02:00:05.766Z,12.10
2023-05-10T02:02:45.311Z,12.08
2023-05-10T02:05:14.613Z,11.98
2023-05-10T02:07:42.583Z,11.91
2023-05-10T02:10:11.048Z,11.79
2023-05-10T02:12:41.999Z,11.77
2023-05-10T02:15:10.582Z,11.68
2023-05-10T02:17:38.771Z,11.72
2023-05-10T02:20:07.448Z,11.68
2023-05-10T02:22:37.023Z,11.74
2023-05-10T02:25:04.855Z,11.67
2023-05-10T02:27:32.660Z,11.61
2023-05-10T02:30:00.006Z,11.59
2023-05-10T02:32:28.666Z,11.62
2023-05-10T02:34:58.127Z,11.61
2023-05-10T02:37:26.381Z,11.51
2023-05-10T02:39:55.230Z,11.41
2023-05-10T02:42:27.152Z,11.41
2023-05-10T02:45:02.073Z,11.24
2023-05-10T02:47:29.802Z,11.31
2023-05-10T02:49:56.810Z,11.29
2023-05-10T02:52:29.943Z,11.26
2023-05-10T02:55:04.129Z,11.28
2023-05-10T02:57:34.924Z,11.25
2023-05-10T03:00:04.257Z,11.23
2023-05-10T03:02:32.022Z,11.12
2023-05-10T03:04:59.794Z,11.19
2023-05-10T03:07:27.043Z,11.16
2023-05-10T03:09:53.789Z,11.09
2023-05-10T03:12:48.774Z,11.15
2023-05-10T03:15:41.671Z,11.12
2023-05-10T03:18:12.045Z,11.17
2023-05-10T03:20:48.240Z,11.14
2023-05-10T03:23:23.864Z,11.13
2023-05-10T03:25:51.745Z,11.17
2023-05-10T03:28:20.069Z,11.13
2023-05-10T03:30:47.736Z,11.04
2023-05-10T03:33:15.214Z,11.12
2023-05-10T03:35:46.888Z,11.13
2023-05-10T03:38:14.687Z,11.13
2023-05-10T03:40:41.678Z,11.14
2023-05-10T03:43:09.077Z,11.11
2023-05-10T03:45:35.807Z,11.12
2023-05-10T03:48:03.383Z,11.15
2023-05-10T03:50:30.254Z,11.12
2023-05-10T03:52:56.996Z,11.07
2023-05-10T03:55:23.872Z,11.01
2023-05-10T03:57:51.233Z,11.02
2023-05-10T04:00:18.517Z,11.07
2023-05-10T04:02:48.134Z,11.08
2023-05-10T04:05:19.013Z,11.09
2023-05-10T04:07:45.723Z,11.07
2023-05-10T04:10:12.743Z,11.10
2023-05-10T04:12:39.458Z,11.05
2023-05-10T04:15:07.555Z,11.07
2023-05-10T04:17:34.357Z,11.12
2023-05-10T04:20:01.115Z,11.11
2023-05-10T04:22:28.898Z,11.11
2023-05-10T04:24:55.765Z,11.09
2023-05-10T04:27:22.492Z,11.03
2023-05-10T04:29:49.461Z,11.04
2023-05-10T04:32:17.356Z,11.08
2023-05-10T04:34:44.981Z,11.14
2023-05-10T04:37:11.603Z,11.14
2023-05-10T04:39:40.180Z,11.22
2023-05-10T04:42:08.235Z,11.22
2023-05-10T04:44:34.993Z,11.17
2023-05-10T04:47:03.246Z,11.18
2023-05-10T04:49:30.765Z,11.18
2023-05-10T04:51:57.360Z,11.23
2023-05-10T04:54:24.059Z,11.29
2023-05-10T04:56:50.686Z,11.34
2023-05-10T04:59:17.351Z,11.30
2023-05-10T05:01:44.347Z,11.40
2023-05-10T05:04:11.030Z,11.33
2023-05-10T05:06:37.648Z,11.36
2023-05-10T05:09:04.314Z,11.42
2023-05-10T05:11:30.969Z,11.43
2023-05-10T05:13:59.999Z,11.48
2023-05-10T05:16:27.255Z,11.57
2023-05-10T05:18:54.110Z,11.62
2023-05-10T05:21:21.395Z,11.68
2023-05-10T05:23:48.055Z,11.55
2023-05-10T05:26:16.065Z,11.61
2023-05-10T05:28:42.884Z,11.61
2023-05-10T05:31:10.244Z,11.68
2023-05-10T05:33:37.553Z,11.78
2023-05-10T05:36:07.470Z,11.80
2023-05-10T05:38:34.144Z,11.83
2023-05-10T05:41:00.937Z,11.91
2023-05-10T05:43:27.616Z,11.92
2023-05-10T05:45:55.045Z,11.97
2023-05-10T05:48:22.075Z,11.92
2023-05-10T05:50:48.865Z,11.86
2023-05-10T05:53:15.673Z,11.79
2023-05-10T05:55:59.283Z,11.91
2023-05-10T05:58:26.936Z,11.98
2023-05-10T06:00:54.558Z,11.93
2023-05-10T06:03:21.752Z,11.95
2023-05-10T06:05:48.755Z,12.00
2023-05-10T06:08:15.527Z,11.96
2023-05-10T06:10:42.281Z,11.97
2023-05-10T06:13:08.992Z,12.01
2023-05-10T06:15:35.748Z,11.97
2023-05-10T06:18:02.549Z,11.93
2023-05-10T06:20:29.201Z,11.91
2023-05-10T06:22:56.058Z,11.98
2023-05-10T06:25:22.680Z,12.02
2023-05-10T06:27:53.475Z,12.11
2023-05-10T06:30:21.322Z,12.11
2023-05-10T06:32:48.103Z,12.14
2023-05-10T06:35:14.967Z,12.15
2023-05-10T06:37:42.031Z,12.11
2023-05-10T06:40:09.052Z,12.14
2023-05-10T06:42:35.711Z,12.15
2023-05-10T06:45:03.468Z,12.25
2023-05-10T06:47:30.231Z,12.23
2023-05-10T06:49:56.948Z,12.36
2023-05-10T06:52:24.431Z,12.52
2023-05-10T06:54:51.092Z,12.58
2023-05-10T06:57:30.650Z,12.55
2023-05-10T06:59:59.496Z,12.57
2023-05-10T07:02:26.321Z,12.54
2023-05-10T07:04:53.499Z,12.59
2023-05-10T07:07:20.329Z,12.77
2023-05-10T07:09:47.111Z,12.84
2023-05-10T07:12:15.246Z,12.89
2023-05-10T07:14:43.086Z,12.87
2023-05-10T07:17:10.924Z,12.99
2023-05-10T07:19:37.750Z,12.92
2023-05-10T07:22:04.451Z,12.79
2023-05-10T07:24:32.301Z,12.85
2023-05-10T07:26:59.064Z,12.98
2023-05-10T07:29:25.948Z,12.91
2023-05-10T07:31:52.737Z,12.82
2023-05-10T07:34:19.392Z,12.78
2023-05-10T07:36:46.133Z,12.83
2023-05-10T07:39:16.439Z,12.78
2023-05-10T07:41:51.297Z,12.75
2023-05-10T07:44:20.134Z,12.80
2023-05-10T07:46:47.398Z,12.99
2023-05-10T07:49:14.223Z,13.19
2023-05-10T07:51:41.154Z,13.29
2023-05-10T07:54:07.755Z,13.46
2023-05-10T07:56:35.544Z,13.53
2023-05-10T07:59:09.255Z,13.58
2023-05-10T08:01:36.968Z,13.57
2023-05-10T08:04:03.735Z,13.59
2023-05-10T08:06:31.275Z,13.68
2023-05-10T08:08:58.180Z,13.74
2023-05-10T08:11:24.844Z,13.89
2023-05-10T08:13:52.540Z,14.02
2023-05-10T08:16:19.330Z,14.02
2023-05-10T08:18:47.987Z,13.89
2023-05-10T08:21:15.965Z,13.94
2023-05-10T08:23:44.824Z,13.96
2023-05-10T08:26:11.991Z,14.00
2023-05-10T08:28:38.674Z,14.10
2023-05-10T08:31:06.211Z,14.30
2023-05-10T08:33:33.078Z,14.39
2023-05-10T08:35:59.898Z,14.43
2023-05-10T08:38:27.021Z,14.32
2023-05-10T08:40:57.976Z,13.91
2023-05-10T08:43:30.283Z,13.43
2023-05-10T08:45:57.839Z,13.27
2023-05-10T08:48:26.039Z,13.26
2023-05-10T08:50:57.633Z,13.37
2023-05-10T08:53:28.673Z,13.52
2023-05-10T08:55:56.578Z,13.62
2023-05-10T08:58:23.364Z,13.75
2023-05-10T09:00:53.467Z,13.81
2023-05-10T09:03:20.150Z,13.98
2023-05-10T09:05:47.409Z,14.05
2023-05-10T09:08:16.758Z,14.18
2023-05-10T09:10:48.608Z,14.46
2023-05-10T09:13:16.591Z,14.48
2023-05-10T09:15:46.073Z,14.66
2023-05-10T09:18:13.508Z,15.01
2023-05-10T09:20:40.521Z,15.18
2023-05-10T09:23:07.937Z,15.20
2023-05-10T09:25:34.907Z,15.31
2023-05-10T09:28:01.696Z,15.62
2023-05-10T09:30:32.267Z,15.78
2023-05-10T09:33:00.728Z,15.83
2023-05-10T09:35:30.335Z,15.98
2023-05-10T09:37:59.102Z,16.00
2023-05-10T09:40:27.861Z,15.88
2023-05-10T09:42:57.089Z,15.81
2023-05-10T09:45:25.555Z,15.83
2023-05-10T09:47:52.625Z,15.91
2023-05-10T09:50:21.420Z,15.83
2023-05-10T09:52:53.416Z,15.75
2023-05-10T09:55:20.950Z,15.77
2023-05-10T09:57:49.194Z,15.73
2023-05-10T10:00:21.053Z,15.66
2023-05-10T10:02:55.257Z,15.59
2023-05-10T10:05:22.100Z,15.41
2023-05-10T10:07:50.283Z,15.42
2023-05-10T10:10:17.279Z,15.42
2023-05-10T10:12:44.143Z,15.39
2023-05-10T10:15:11.565Z,15.39
2023-05-10T10:17:40.003Z,15.34
2023-05-10T10:20:09.892Z,15.31
2023-05-10T10:22:38.498Z,15.33
2023-05-10T10:25:09.526Z,15.40
2023-05-10T10:27:54.425Z,15.54
2023-05-10T10:30:32.483Z,15.61
2023-05-10T10:32:59.139Z,15.54
2023-05-10T10:35:26.042Z,15.62
2023-05-10T10:37:52.714Z,15.69
2023-05-10T10:40:27.804Z,15.67
2023-05-10T10:42:55.737Z,15.56
2023-05-10T10:45:23.410Z,15.38
2023-05-10T10:47:54.482Z,15.27
2023-05-10T10:50:21.165Z,14.89
2023-05-10T10:52:50.474Z,14.48
2023-05-10T10:55:26.037Z,14.02
2023-05-10T10:58:01.636Z,13.73
2023-05-10T11:00:32.437Z,13.63
2023-05-10T11:02:59.240Z,13.51
2023-05-10T11:05:33.964Z,13.38
2023-05-10T11:08:01.625Z,13.18
2023-05-10T11:10:28.510Z,13.16
2023-05-10T11:13:02.101Z,13.20
2023-05-10T11:15:31.960Z,13.28
2023-05-10T11:17:58.989Z,13.28
2023-05-10T11:20:34.288Z,13.18
2023-05-10T11:23:19.169Z,13.21
2023-05-10T11:25:46.965Z,13.19
2023-05-10T11:28:14.142Z,13.16
2023-05-10T11:30:41.838Z,13.13
2023-05-10T11:33:09.938Z,13.14
2023-05-10T11:35:43.167Z,13.22
2023-05-10T11:38:14.369Z,13.30
2023-05-10T11:40:42.032Z,13.41
2023-05-10T11:43:11.233Z,13.54
2023-05-10T11:45:38.193Z,13.69
2023-05-10T11:48:05.293Z,13.70
2023-05-10T11:50:32.100Z,13.67
2023-05-10T11:52:59.813Z,13.69
2023-05-10T11:55:26.568Z,13.64
2023-05-10T11:57:54.514Z,13.64
2023-05-10T12:00:21.570Z,13.71
2023-05-10T12:02:49.399Z,13.73
2023-05-10T12:05:16.437Z,13.73
2023-05-10T12:07:43.326Z,13.75
2023-05-10T12:10:15.504Z,13.79
2023-05-10T12:12:44.357Z,13.75
2023-05-10T12:15:17.637Z,13.87
2023-05-10T12:17:45.735Z,13.98
2023-05-10T12:20:21.208Z,14.10
2023-05-10T12:22:52.622Z,14.14
2023-05-10T12:25:21.339Z,14.08
2023-05-10T12:27:58.913Z,14.05
2023-05-10T12:30:27.524Z,14.14
2023-05-10T12:32:55.697Z,14.13
2023-05-10T12:35:23.070Z,14.26
2023-05-10T12:37:49.704Z,14.46
2023-05-10T12:40:16.797Z,14.57
2023-05-10T12:42:45.855Z,14.62
2023-05-10T12:45:12.944Z,14.63
2023-05-10T12:47:42.188Z,14.42
2023-05-10T12:50:11.403Z,14.21
2023-05-10T12:52:38.291Z,14.11
2023-05-10T12:55:05.428Z,13.86
2023-05-10T12:57:32.139Z,13.40
2023-05-10T12:59:58.806Z,12.92
2023-05-10T13:02:25.533Z,12.61
2023-05-10T13:04:52.281Z,12.26
2023-05-10T13:07:19.009Z,12.04
2023-05-10T13:09:45.790Z,11.76
2023-05-10T13:12:12.485Z,11.59
2023-05-10T13:14:41.346Z,11.46
2023-05-10T13:17:08.262Z,11.37
2023-05-10T13:19:34.992Z,11.28
2023-05-10T13:22:01.784Z,11.24
2023-05-10T13:24:28.531Z,11.28
2023-05-10T13:26:55.212Z,11.23
2023-05-10T13:29:23.488Z,11.23
2023-05-10T13:31:50.434Z,11.19
2023-05-10T13:34:17.324Z,11.13
2023-05-10T13:36:44.003Z,11.08
2023-05-10T13:39:10.627Z,11.07
2023-05-10T13:41:38.102Z,11.09
2023-05-10T13:44:04.844Z,11.06
2023-05-10T13:46:32.033Z,11.14
2023-05-10T13:48:58.738Z,11.21
2023-05-10T13:51:25.541Z,11.33
2023-05-10T13:53:53.113Z,11.38
2023-05-10T13:56:19.776Z,11.36
2023-05-10T13:58:46.492Z,11.35
2023-05-10T14:01:13.317Z,11.50
2023-05-10T14:03:40.500Z,11.45
2023-05-10T14:06:08.490Z,11.54
2023-05-10T14:08:36.529Z,11.72
2023-05-10T14:11:03.662Z,11.72
2023-05-10T14:13:30.588Z,11.79
2023-05-10T14:15:57.401Z,11.83
2023-05-10T14:18:24.217Z,11.81
2023-05-10T14:20:50.923Z,11.86
2023-05-10T14:23:17.697Z,11.83
2023-05-10T14:25:44.527Z,11.97
2023-05-10T14:28:11.259Z,12.00
2023-05-10T14:30:38.008Z,12.02
2023-05-10T14:33:04.946Z,12.15
2023-05-10T14:35:34.459Z,12.14
2023-05-10T14:38:01.541Z,12.24
2023-05-10T14:40:28.477Z,12.40
2023-05-10T14:42:55.335Z,12.40
2023-05-10T14:45:22.323Z,12.40
2023-05-10T14:47:49.339Z,12.41
2023-05-10T14:50:32.421Z,12.49
2023-05-10T14:53:03.034Z,12.58
2023-05-10T14:55:29.977Z,12.53
2023-05-10T14:57:57.282Z,12.54
2023-05-10T15:00:24.002Z,12.56
2023-05-10T15:02:51.146Z,12.52
2023-05-10T15:05:18.708Z,12.51
2023-05-10T15:07:46.084Z,12.46
2023-05-10T15:10:12.868Z,12.47
2023-05-10T15:12:39.592Z,12.61
2023-05-10T15:15:07.401Z,12.67
2023-05-10T15:17:34.647Z,12.64
2023-05-10T15:20:04.081Z,12.63
2023-05-10T15:22:34.372Z,12.77
2023-05-10T15:25:01.312Z,12.80
2023-05-10T15:27:28.026Z,12.80
2023-05-10T15:29:54.740Z,12.79
2023-05-10T15:32:21.436Z,12.86
2023-05-10T15:34:48.218Z,12.75
2023-05-10T15:37:14.899Z,12.71
2023-05-10T15:39:41.578Z,12.69
2023-05-10T15:42:08.290Z,12.68
2023-05-10T15:44:36.100Z,12.59
2023-05-10T15:47:03.897Z,12.64
2023-05-10T15:49:30.769Z,12.65
2023-05-10T15:51:57.517Z,12.52
2023-05-10T15:54:24.200Z,12.55
2023-05-10T15:56:50.847Z,12.53
2023-05-10T15:59:17.456Z,12.46
2023-05-10T16:01:44.415Z,12.44
2023-05-10T16:04:11.152Z,12.48
2023-05-10T16:06:38.012Z,12.44
2023-05-10T16:09:04.817Z,12.46
2023-05-10T16:11:31.497Z,12.47
2023-05-10T16:13:58.249Z,12.49
2023-05-10T16:16:25.072Z,12.52
2023-05-10T16:18:52.449Z,12.57
2023-05-10T16:21:19.203Z,12.49
2023-05-10T16:23:46.640Z,12.52
2023-05-10T16:26:13.368Z,12.43
2023-05-10T16:28:41.001Z,12.46
2023-05-10T16:31:08.221Z,12.49
2023-05-10T16:33:35.288Z,12.51
2023-05-10T16:36:01.956Z,12.45
2023-05-10T16:38:28.726Z,12.44
2023-05-10T16:40:57.282Z,12.41
2023-05-10T16:43:25.864Z,12.39
2023-05-10T16:45:52.901Z,12.39
2023-05-10T16:48:19.609Z,12.29
2023-05-10T16:50:46.649Z,12.32
2023-05-10T16:53:13.428Z,12.29
2023-05-10T16:55:40.082Z,12.22
2023-05-10T16:58:06.832Z,12.21
2023-05-10T17:00:33.690Z,12.24
2023-05-10T17:03:00.515Z,12.20
2023-05-10T17:05:27.286Z,12.18
2023-05-10T17:07:53.993Z,12.16
2023-05-10T17:10:20.787Z,12.19
2023-05-10T17:12:47.770Z,12.20
2023-05-10T17:15:16.666Z,12.15
2023-05-10T17:17:45.264Z,12.10
2023-05-10T17:20:12.322Z,12.08
2023-05-10T17:22:39.095Z,12.02
2023-05-10T17:25:06.329Z,11.94
2023-05-10T17:27:32.958Z,11.97
2023-05-10T17:29:59.734Z,12.00
2023-05-10T17:32:26.565Z,11.99
2023-05-10T17:34:53.300Z,11.99
2023-05-10T17:37:20.198Z,12.07
2023-05-10T17:39:47.015Z,12.09
2023-05-10T17:42:16.317Z,12.06
2023-05-10T17:44:43.602Z,12.02
2023-05-10T17:47:10.449Z,11.95
2023-05-10T17:49:37.131Z,11.93
2023-05-10T17:52:03.894Z,11.92
2023-05-10T17:54:30.602Z,11.94
2023-05-10T17:56:58.214Z,11.95
2023-05-10T17:59:24.941Z,11.94
2023-05-10T18:01:51.686Z,11.95
2023-05-10T18:04:18.414Z,11.93
2023-05-10T18:06:45.136Z,11.83
2023-05-10T18:09:11.864Z,11.83
2023-05-10T18:11:39.465Z,11.81
2023-05-10T18:14:06.239Z,11.74
2023-05-10T18:16:32.974Z,11.69
2023-05-10T18:18:59.757Z,11.61
2023-05-10T18:21:26.598Z,11.53
2023-05-10T18:23:53.299Z,11.58
2023-05-10T18:26:19.997Z,11.56
2023-05-10T18:28:46.773Z,11.43
2023-05-10T18:31:13.482Z,11.49
2023-05-10T18:33:40.221Z,11.43
2023-05-10T18:36:07.500Z,11.54
2023-05-10T18:38:34.444Z,11.50
2023-05-10T18:41:01.116Z,11.46
2023-05-10T18:43:27.808Z,11.48
2023-05-10T18:45:54.524Z,11.51
2023-05-10T18:48:21.202Z,11.49
2023-05-10T18:50:48.457Z,11.47
2023-05-10T18:53:15.131Z,11.48
2023-05-10T18:55:41.751Z,11.45
2023-05-10T18:58:08.385Z,11.38
2023-05-10T19:00:35.029Z,11.24
2023-05-10T19:03:01.806Z,11.25
2023-05-10T19:05:30.387Z,11.13
2023-05-10T19:07:57.116Z,11.22
2023-05-10T19:10:24.037Z,11.21
2023-05-10T19:12:50.811Z,11.13
2023-05-10T19:15:19.256Z,11.18
2023-05-10T19:17:47.624Z,11.09
2023-05-10T19:20:16.610Z,11.18
2023-05-10T19:22:58.142Z,11.15
2023-05-10T19:25:30.169Z,11.09
2023-05-10T19:27:57.922Z,11.17
2023-05-10T19:30:25.573Z,11.08
2023-05-10T19:32:52.430Z,11.04
2023-05-10T19:35:19.362Z,11.01
2023-05-10T19:37:47.279Z,10.97
2023-05-10T19:40:17.498Z,11.09
2023-05-10T19:42:44.311Z,11.14
2023-05-10T19:45:12.040Z,11.10
2023-05-10T19:47:38.856Z,11.08
2023-05-10T19:50:07.160Z,11.07
2023-05-10T19:52:33.823Z,11.05
2023-05-10T19:55:00.479Z,11.01
2023-05-10T19:57:27.517Z,10.96
2023-05-10T19:59:54.201Z,10.96
2023-05-10T20:02:21.012Z,10.98
2023-05-10T20:04:47.639Z,11.03
2023-05-10T20:07:14.373Z,11.09
2023-05-10T20:09:42.728Z,11.04
2023-05-10T20:12:09.542Z,11.11
2023-05-10T20:14:36.490Z,11.07
2023-05-10T20:17:03.266Z,11.01
2023-05-10T20:19:29.963Z,10.97
2023-05-10T20:21:58.771Z,10.94
2023-05-10T20:24:25.667Z,10.97
2023-05-10T20:26:52.413Z,10.99
2023-05-10T20:29:19.094Z,11.03
2023-05-10T20:31:45.843Z,11.06
2023-05-10T20:34:12.623Z,11.08
2023-05-10T20:36:39.631Z,11.12
2023-05-10T20:39:06.429Z,11.15
2023-05-10T20:41:33.557Z,11.19
2023-05-10T20:44:00.665Z,11.19
2023-05-10T20:46:27.548Z,11.19
2023-05-10T20:48:54.742Z,11.16
2023-05-10T20:51:21.506Z,11.13
2023-05-10T20:53:48.291Z,11.15
2023-05-10T20:56:15.216Z,11.17
2023-05-10T20:58:42.294Z,11.17
2023-05-10T21:01:09.488Z,11.15
2023-05-10T21:03:36.433Z,11.13
2023-05-10T21:06:03.196Z,11.05
2023-05-10T21:08:30.002Z,11.13
2023-05-10T21:10:56.846Z,11.14
2023-05-10T21:13:23.841Z,11.15
2023-05-10T21:15:50.665Z,11.09
2023-05-10T21:18:17.545Z,11.15
2023-05-10T21:20:44.434Z,11.12
2023-05-10T21:23:11.243Z,11.12
2023-05-10T21:25:38.281Z,11.10
2023-05-10T21:28:05.336Z,11.09
2023-05-10T21:30:32.986Z,11.09
2023-05-10T21:33:00.114Z,11.01
2023-05-10T21:35:26.817Z,11.02
2023-05-10T21:37:53.773Z,10.93
2023-05-10T21:40:20.947Z,11.00
2023-05-10T21:42:50.638Z,11.00
2023-05-10T21:45:19.662Z,10.99
2023-05-10T21:47:46.501Z,10.97
2023-05-10T21:50:13.455Z,10.98
2023-05-10T21:52:40.114Z,10.98
2023-05-10T21:55:08.719Z,11.01
2023-05-10T21:57:36.358Z,10.98
2023-05-10T22:00:03.787Z,10.95
2023-05-10T22:02:31.408Z,10.96
2023-05-10T22:04:58.576Z,10.92
2023-05-10T22:07:25.428Z,10.93
2023-05-10T22:09:52.144Z,10.88
2023-05-10T22:12:18.829Z,10.91
2023-05-10T22:14:45.485Z,10.90
2023-05-10T22:17:12.397Z,10.91
2023-05-10T22:19:39.290Z,10.88
2023-05-10T22:22:05.936Z,10.86
2023-05-10T22:24:32.730Z,10.84
2023-05-10T22:26:59.535Z,10.81
2023-05-10T22:29:26.160Z,10.75
2023-05-10T22:31:52.813Z,10.74
2023-05-10T22:34:19.477Z,10.76
2023-05-10T22:36:46.709Z,10.79
2023-05-10T22:39:13.354Z,10.80
2023-05-10T22:41:40.167Z,10.79
2023-05-10T22:44:06.927Z,10.81
2023-05-10T22:46:33.740Z,10.74
2023-05-10T22:49:00.542Z,10.76
2023-05-10T22:51:27.388Z,10.77
2023-05-10T22:53:54.098Z,10.76
2023-05-10T22:56:22.029Z,10.78
2023-05-10T22:58:49.716Z,10.69
2023-05-10T23:01:16.504Z,10.70
2023-05-10T23:03:43.270Z,10.70
2023-05-10T23:06:10.112Z,10.71
2023-05-10T23:08:36.775Z,10.72
2023-05-10T23:11:03.607Z,10.70
2023-05-10T23:13:30.420Z,10.69
2023-05-10T23:15:57.392Z,10.67
2023-05-10T23:18:24.170Z,10.72
2023-05-10T23:20:50.837Z,10.71
2023-05-10T23:23:17.604Z,10.73
2023-05-10T23:25:44.378Z,10.70
2023-05-10T23:28:11.184Z,10.63
2023-05-10T23:30:37.863Z,10.63
2023-05-10T23:33:04.825Z,10.68
2023-05-10T23:35:31.625Z,10.61
2023-05-10T23:37:58.348Z,10.64
2023-05-10T23:40:25.137Z,10.58
2023-05-10T23:42:51.940Z,10.59
2023-05-10T23:45:18.637Z,10.56
2023-05-10T23:47:45.374Z,10.52
2023-05-10T23:50:12.144Z,10.48
2023-05-10T23:52:38.776Z,10.46
2023-05-10T23:55:05.787Z,10.52
2023-05-10T23:57:32.422Z,10.55
2023-05-10T23:59:59.140Z,10.58
